createdAt,value
2016-09-12T00:00:13.868Z,1002.56
2016-09-12T00:00:35.592Z,1002.62
2016-09-12T00:00:57.311Z,1002.86
2016-09-12T00:01:19.069Z,1002.96
2016-09-12T00:01:40.814Z,1002.72
2016-09-12T00:02:02.599Z,1002.75
2016-09-12T00:02:24.541Z,1002.56
2016-09-12T00:02:46.269Z,1002.75
2016-09-12T00:03:07.991Z,1002.73
2016-09-12T00:03:29.845Z,1002.87
2016-09-12T00:03:51.578Z,1002.85
2016-09-12T00:04:13.301Z,1002.54
2016-09-12T00:04:35.046Z,1002.45
2016-09-12T00:04:56.771Z,1002.59
2016-09-12T00:05:18.511Z,1002.56
2016-09-12T00:05:40.236Z,1002.60
2016-09-12T00:06:01.987Z,1002.75
2016-09-12T00:06:23.712Z,1002.72
2016-09-12T00:06:45.455Z,1002.80
2016-09-12T00:07:07.174Z,1002.84
2016-09-12T00:07:28.953Z,1002.71
2016-09-12T00:07:50.678Z,1002.64
2016-09-12T00:08:12.650Z,1002.88
2016-09-12T00:08:34.366Z,1002.88
2016-09-12T00:08:56.102Z,1002.60
2016-09-12T00:09:17.830Z,1002.61
2016-09-12T00:09:39.555Z,1002.44
2016-09-12T00:10:01.290Z,1002.64
2016-09-12T00:10:23.679Z,1002.86
2016-09-12T00:10:50.195Z,1002.74
2016-09-12T00:11:11.951Z,1002.67
2016-09-12T00:11:33.744Z,1002.58
2016-09-12T00:11:55.406Z,1002.91
2016-09-12T00:12:17.138Z,1003.04
2016-09-12T00:12:38.883Z,1002.93
2016-09-12T00:13:00.625Z,1002.78
2016-09-12T00:13:22.639Z,1002.71
2016-09-12T00:13:44.361Z,1002.53
2016-09-12T00:14:06.160Z,1002.66
2016-09-12T00:14:27.963Z,1002.73
2016-09-12T00:14:49.721Z,1002.64
2016-09-12T00:15:11.622Z,1002.44
2016-09-12T00:15:33.350Z,1002.89
2016-09-12T00:15:55.132Z,1002.85
2016-09-12T00:16:21.654Z,1002.63
2016-09-12T00:16:43.412Z,1002.56
2016-09-12T00:17:09.933Z,1002.62
2016-09-12T00:17:31.784Z,1002.74
2016-09-12T00:17:53.516Z,1002.70
2016-09-12T00:18:15.251Z,1002.70
2016-09-12T00:18:36.990Z,1002.75
2016-09-12T00:18:58.739Z,1002.54
2016-09-12T00:19:20.467Z,1002.62
2016-09-12T00:20:08.720Z,1002.92
2016-09-12T00:20:30.441Z,1002.78
2016-09-12T00:20:52.187Z,1002.60
2016-09-12T00:21:13.910Z,1002.75
2016-09-12T00:21:35.655Z,1002.92
2016-09-12T00:21:57.391Z,1002.82
2016-09-12T00:22:19.151Z,1002.64
2016-09-12T00:22:40.878Z,1002.67
2016-09-12T00:23:03.704Z,1002.74
2016-09-12T00:23:30.194Z,1002.61
2016-09-12T00:23:51.954Z,1002.47
2016-09-12T00:24:13.680Z,1002.44
2016-09-12T00:24:36.450Z,1002.56
2016-09-12T00:24:58.300Z,1002.57
2016-09-12T00:25:20.081Z,1002.69
2016-09-12T00:25:41.841Z,1002.73
2016-09-12T00:26:03.590Z,1002.69
2016-09-12T00:26:25.320Z,1002.50
2016-09-12T00:26:47.066Z,1002.77
2016-09-12T00:27:08.788Z,1002.76
2016-09-12T00:27:30.527Z,1002.61
2016-09-12T00:27:52.262Z,1002.66
2016-09-12T00:28:14.023Z,1002.56
2016-09-12T00:28:35.841Z,1002.38
2016-09-12T00:28:57.576Z,1002.43
2016-09-12T00:29:19.335Z,1002.36
2016-09-12T00:29:41.064Z,1002.56
2016-09-12T00:30:03.504Z,1002.61
2016-09-12T00:30:26.179Z,1002.64
2016-09-12T00:30:47.908Z,1002.66
2016-09-12T00:31:10.205Z,1002.60
2016-09-12T00:31:32.020Z,1002.52
2016-09-12T00:31:53.988Z,1002.94
2016-09-12T00:32:15.735Z,1003.06
2016-09-12T00:32:37.469Z,1002.71
2016-09-12T00:33:00.378Z,1002.83
2016-09-12T00:33:26.890Z,1002.52
2016-09-12T00:33:48.644Z,1002.70
2016-09-12T00:34:10.603Z,1002.55
2016-09-12T00:34:32.333Z,1002.82
2016-09-12T00:34:54.068Z,1002.96
2016-09-12T00:35:15.779Z,1002.58
2016-09-12T00:35:37.639Z,1002.73
2016-09-12T00:35:59.376Z,1002.53
2016-09-12T00:36:21.228Z,1002.72
2016-09-12T00:36:42.973Z,1002.60
2016-09-12T00:37:04.700Z,1002.42
2016-09-12T00:37:26.546Z,1002.30
2016-09-12T00:37:48.252Z,1002.40
2016-09-12T00:38:09.975Z,1002.62
2016-09-12T00:38:32.116Z,1002.67
2016-09-12T00:38:53.864Z,1002.46
2016-09-12T00:39:15.581Z,1002.45
2016-09-12T00:39:37.363Z,1002.56
2016-09-12T00:40:02.105Z,1002.67
2016-09-12T00:40:23.866Z,1002.47
2016-09-12T00:40:45.629Z,1002.50
2016-09-12T00:41:07.336Z,1002.50
2016-09-12T00:41:33.828Z,1002.42
2016-09-12T00:41:55.567Z,1002.57
2016-09-12T00:42:17.316Z,1002.73
2016-09-12T00:42:39.061Z,1002.58
2016-09-12T00:43:00.798Z,1002.65
2016-09-12T00:43:22.547Z,1002.61
2016-09-12T00:43:44.276Z,1003.07
2016-09-12T00:44:06.014Z,1002.78
2016-09-12T00:44:27.752Z,1002.37
2016-09-12T00:44:49.473Z,1002.77
2016-09-12T00:45:11.239Z,1002.84
2016-09-12T00:45:33.019Z,1002.54
2016-09-12T00:45:54.759Z,1002.34
2016-09-12T00:46:16.602Z,1002.72
2016-09-12T00:46:38.292Z,1002.42
2016-09-12T00:47:00.034Z,1002.49
2016-09-12T00:47:21.751Z,1002.32
2016-09-12T00:47:43.515Z,1002.77
2016-09-12T00:48:05.268Z,1002.41
2016-09-12T00:48:27.102Z,1002.47
2016-09-12T00:48:48.862Z,1002.55
2016-09-12T00:49:10.613Z,1002.67
2016-09-12T00:49:32.346Z,1002.70
2016-09-12T00:49:54.087Z,1002.71
2016-09-12T00:50:16.906Z,1002.48
2016-09-12T00:50:38.616Z,1002.49
2016-09-12T00:51:00.815Z,1002.55
2016-09-12T00:51:22.510Z,1002.50
2016-09-12T00:51:44.241Z,1002.67
2016-09-12T00:52:05.975Z,1002.69
2016-09-12T00:52:27.713Z,1002.39
2016-09-12T00:52:49.449Z,1002.75
2016-09-12T00:53:37.684Z,1002.97
2016-09-12T00:53:59.605Z,1002.78
2016-09-12T00:54:21.349Z,1002.61
2016-09-12T00:54:43.083Z,1002.55
2016-09-12T00:55:04.870Z,1002.83
2016-09-12T00:55:26.655Z,1002.63
2016-09-12T00:55:48.484Z,1002.98
2016-09-12T00:56:10.219Z,1002.97
2016-09-12T00:56:31.955Z,1002.91
2016-09-12T00:56:53.687Z,1002.68
2016-09-12T00:57:15.418Z,1002.79
2016-09-12T00:57:37.390Z,1002.66
2016-09-12T00:57:59.177Z,1002.36
2016-09-12T00:58:20.993Z,1002.27
2016-09-12T00:58:42.726Z,1002.31
2016-09-12T00:59:04.472Z,1002.43
2016-09-12T00:59:26.183Z,1002.51
2016-09-12T00:59:47.956Z,1002.48
2016-09-12T01:00:09.724Z,1002.32
2016-09-12T01:00:31.544Z,1002.36
2016-09-12T01:00:53.267Z,1002.68
2016-09-12T01:01:15.039Z,1002.85
2016-09-12T01:01:36.775Z,1002.75
2016-09-12T01:01:58.599Z,1002.57
2016-09-12T01:02:20.469Z,1002.94
2016-09-12T01:02:42.217Z,1002.98
2016-09-12T01:03:03.950Z,1002.81
2016-09-12T01:03:25.668Z,1002.63
2016-09-12T01:03:47.392Z,1002.68
2016-09-12T01:04:09.123Z,1002.62
2016-09-12T01:04:30.855Z,1002.40
2016-09-12T01:04:52.588Z,1002.32
2016-09-12T01:05:14.318Z,1002.49
2016-09-12T01:05:36.059Z,1002.31
2016-09-12T01:05:57.792Z,1002.54
2016-09-12T01:06:19.530Z,1002.24
2016-09-12T01:06:41.251Z,1002.76
2016-09-12T01:07:02.996Z,1002.96
2016-09-12T01:07:24.734Z,1002.57
2016-09-12T01:07:46.479Z,1002.61
2016-09-12T01:08:08.331Z,1002.58
2016-09-12T01:08:30.103Z,1002.74
2016-09-12T01:08:51.926Z,1002.68
2016-09-12T01:09:15.630Z,1002.45
2016-09-12T01:09:37.351Z,1002.37
2016-09-12T01:09:59.092Z,1002.33
2016-09-12T01:10:20.835Z,1002.43
2016-09-12T01:10:42.579Z,1002.58
2016-09-12T01:11:04.312Z,1002.89
2016-09-12T01:11:26.068Z,1002.84
2016-09-12T01:11:47.825Z,1002.51
2016-09-12T01:12:09.575Z,1002.40
2016-09-12T01:12:31.319Z,1002.22
2016-09-12T01:12:53.054Z,1002.22
2016-09-12T01:13:14.818Z,1002.15
2016-09-12T01:13:36.559Z,1002.65
2016-09-12T01:13:58.319Z,1002.59
2016-09-12T01:14:20.037Z,1002.28
2016-09-12T01:14:41.770Z,1002.20
2016-09-12T01:15:03.540Z,1002.52
2016-09-12T01:15:25.248Z,1002.66
2016-09-12T01:15:47.052Z,1002.36
2016-09-12T01:16:08.786Z,1002.50
2016-09-12T01:16:30.540Z,1002.58
2016-09-12T01:16:57.027Z,1002.41
2016-09-12T01:17:18.785Z,1002.23
2016-09-12T01:17:40.514Z,1002.44
2016-09-12T01:18:02.242Z,1002.55
2016-09-12T01:18:23.969Z,1002.90
2016-09-12T01:18:46.692Z,1002.97
2016-09-12T01:19:08.411Z,1002.96
2016-09-12T01:19:30.167Z,1002.66
2016-09-12T01:19:52.139Z,1002.41
2016-09-12T01:20:13.865Z,1002.35
2016-09-12T01:20:35.591Z,1002.49
2016-09-12T01:20:57.309Z,1002.59
2016-09-12T01:21:19.060Z,1002.38
2016-09-12T01:21:40.820Z,1002.10
2016-09-12T01:22:02.554Z,1002.51
2016-09-12T01:22:50.816Z,1002.74
2016-09-12T01:23:17.341Z,1002.33
2016-09-12T01:23:39.063Z,1002.23
2016-09-12T01:24:00.824Z,1002.00
2016-09-12T01:24:22.551Z,1002.44
2016-09-12T01:24:44.284Z,1002.59
2016-09-12T01:25:06.014Z,1002.48
2016-09-12T01:25:27.745Z,1002.61
2016-09-12T01:25:49.511Z,1002.50
2016-09-12T01:26:11.384Z,1002.43
2016-09-12T01:26:33.145Z,1002.47
2016-09-12T01:26:54.909Z,1002.35
2016-09-12T01:27:16.639Z,1002.18
2016-09-12T01:27:38.416Z,1002.42
2016-09-12T01:28:00.166Z,1002.71
2016-09-12T01:28:21.946Z,1002.46
2016-09-12T01:28:43.687Z,1002.45
2016-09-12T01:29:05.437Z,1002.29
2016-09-12T01:29:27.162Z,1002.14
2016-09-12T01:29:48.880Z,1002.35
2016-09-12T01:30:10.631Z,1002.37
2016-09-12T01:30:32.393Z,1002.37
2016-09-12T01:30:54.156Z,1002.57
2016-09-12T01:31:15.886Z,1002.45
2016-09-12T01:31:37.639Z,1002.38
2016-09-12T01:31:59.350Z,1002.71
2016-09-12T01:32:21.328Z,1002.57
2016-09-12T01:32:43.087Z,1002.34
2016-09-12T01:33:05.295Z,1002.43
2016-09-12T01:33:27.146Z,1002.29
2016-09-12T01:33:48.894Z,1002.35
2016-09-12T01:34:10.627Z,1002.44
2016-09-12T01:34:32.357Z,1002.46
2016-09-12T01:34:54.091Z,1002.48
2016-09-12T01:35:15.877Z,1002.49
2016-09-12T01:35:38.795Z,1002.48
2016-09-12T01:36:00.566Z,1002.12
2016-09-12T01:36:22.311Z,1002.53
2016-09-12T01:36:44.128Z,1002.20
2016-09-12T01:37:05.867Z,1002.03
2016-09-12T01:37:27.594Z,1002.03
2016-09-12T01:37:49.331Z,1002.12
2016-09-12T01:38:11.096Z,1002.58
2016-09-12T01:38:32.969Z,1002.58
2016-09-12T01:38:54.686Z,1002.31
2016-09-12T01:39:16.435Z,1001.86
2016-09-12T01:39:38.154Z,1001.97
2016-09-12T01:39:59.894Z,1002.46
2016-09-12T01:40:22.834Z,1002.53
2016-09-12T01:40:44.588Z,1001.98
2016-09-12T01:41:06.581Z,1002.14
2016-09-12T01:41:28.519Z,1002.25
2016-09-12T01:41:50.312Z,1002.40
2016-09-12T01:42:12.002Z,1002.48
2016-09-12T01:42:33.812Z,1002.29
2016-09-12T01:42:55.572Z,1002.18
2016-09-12T01:43:17.297Z,1002.27
2016-09-12T01:43:39.101Z,1002.17
2016-09-12T01:44:00.929Z,1002.32
2016-09-12T01:44:22.795Z,1002.62
2016-09-12T01:44:44.520Z,1002.64
2016-09-12T01:45:06.539Z,1002.29
2016-09-12T01:45:28.308Z,1001.87
2016-09-12T01:45:50.095Z,1001.92
2016-09-12T01:46:11.804Z,1001.94
2016-09-12T01:46:33.517Z,1002.04
2016-09-12T01:46:55.249Z,1001.97
2016-09-12T01:47:16.973Z,1002.04
2016-09-12T01:47:38.743Z,1002.18
2016-09-12T01:48:00.679Z,1002.12
2016-09-12T01:48:22.416Z,1002.07
2016-09-12T01:48:44.140Z,1002.65
2016-09-12T01:49:05.886Z,1002.96
2016-09-12T01:49:27.637Z,1002.64
2016-09-12T01:49:49.351Z,1002.43
2016-09-12T01:50:11.095Z,1002.41
2016-09-12T01:50:32.832Z,1002.16
2016-09-12T01:50:54.547Z,1002.13
2016-09-12T01:51:16.296Z,1002.17
2016-09-12T01:51:38.336Z,1002.23
2016-09-12T01:51:59.908Z,1002.21
2016-09-12T01:52:21.759Z,1002.21
2016-09-12T01:52:43.422Z,1002.16
2016-09-12T01:53:05.354Z,1002.26
2016-09-12T01:53:27.090Z,1002.17
2016-09-12T01:53:48.834Z,1002.17
2016-09-12T01:54:10.570Z,1002.07
2016-09-12T01:54:32.302Z,1001.89
2016-09-12T01:54:54.084Z,1001.92
2016-09-12T01:55:16.173Z,1002.36
2016-09-12T01:55:37.870Z,1002.63
2016-09-12T01:55:59.662Z,1002.23
2016-09-12T01:56:21.620Z,1001.81
2016-09-12T01:56:43.331Z,1001.83
2016-09-12T01:57:05.095Z,1001.93
2016-09-12T01:57:26.849Z,1001.96
2016-09-12T01:57:48.567Z,1001.87
2016-09-12T01:58:10.391Z,1001.90
2016-09-12T01:58:32.065Z,1002.03
2016-09-12T01:58:53.756Z,1002.18
2016-09-12T01:59:15.490Z,1002.27
2016-09-12T01:59:37.213Z,1002.05
2016-09-12T01:59:58.953Z,1002.51
2016-09-12T02:00:20.694Z,1002.69
2016-09-12T02:00:42.436Z,1002.51
2016-09-12T02:01:04.354Z,1002.13
2016-09-12T02:01:26.155Z,1001.75
2016-09-12T02:01:47.883Z,1002.02
2016-09-12T02:02:09.610Z,1001.82
2016-09-12T02:02:31.329Z,1002.18
2016-09-12T02:03:19.553Z,1002.25
2016-09-12T02:03:41.302Z,1002.18
2016-09-12T02:04:03.316Z,1002.21
2016-09-12T02:04:24.970Z,1002.24
2016-09-12T02:04:46.735Z,1001.80
2016-09-12T02:05:08.444Z,1001.94
2016-09-12T02:05:30.171Z,1001.96
2016-09-12T02:05:51.924Z,1001.80
2016-09-12T02:06:13.652Z,1001.94
2016-09-12T02:06:35.389Z,1001.93
2016-09-12T02:06:57.126Z,1001.90
2016-09-12T02:07:18.865Z,1002.49
2016-09-12T02:07:40.612Z,1002.31
2016-09-12T02:08:02.369Z,1002.02
2016-09-12T02:08:24.098Z,1001.81
2016-09-12T02:08:45.829Z,1002.21
2016-09-12T02:09:07.586Z,1002.66
2016-09-12T02:09:29.315Z,1002.31
2016-09-12T02:09:51.031Z,1002.05
2016-09-12T02:10:12.769Z,1002.07
2016-09-12T02:10:34.537Z,1001.84
2016-09-12T02:10:56.501Z,1002.42
2016-09-12T02:11:18.094Z,1002.59
2016-09-12T02:11:39.824Z,1002.35
2016-09-12T02:12:01.561Z,1002.31
2016-09-12T02:12:23.282Z,1001.87
2016-09-12T02:12:45.018Z,1002.09
2016-09-12T02:13:06.746Z,1002.04
2016-09-12T02:13:28.525Z,1002.17
2016-09-12T02:13:50.199Z,1002.08
2016-09-12T02:14:11.956Z,1002.15
2016-09-12T02:14:34.671Z,1002.17
2016-09-12T02:14:56.392Z,1002.44
2016-09-12T02:15:18.142Z,1002.62
2016-09-12T02:15:39.874Z,1002.38
2016-09-12T02:16:01.626Z,1002.42
2016-09-12T02:16:23.342Z,1001.91
2016-09-12T02:16:45.106Z,1001.84
2016-09-12T02:17:06.950Z,1001.92
2016-09-12T02:17:28.612Z,1001.94
2016-09-12T02:17:50.337Z,1001.68
2016-09-12T02:18:12.111Z,1002.44
2016-09-12T02:18:33.866Z,1002.18
2016-09-12T02:18:56.623Z,1002.08
2016-09-12T02:19:18.330Z,1002.27
2016-09-12T02:19:40.070Z,1002.30
2016-09-12T02:20:02.486Z,1001.88
2016-09-12T02:20:24.137Z,1002.09
2016-09-12T02:20:45.872Z,1002.46
2016-09-12T02:21:07.685Z,1002.10
2016-09-12T02:21:30.470Z,1002.15
2016-09-12T02:21:52.151Z,1002.54
2016-09-12T02:22:13.877Z,1002.44
2016-09-12T02:22:35.653Z,1002.36
2016-09-12T02:22:57.411Z,1002.10
2016-09-12T02:23:19.142Z,1002.01
2016-09-12T02:23:40.928Z,1002.06
2016-09-12T02:24:02.670Z,1002.08
2016-09-12T02:24:24.420Z,1002.03
2016-09-12T02:24:46.147Z,1001.77
2016-09-12T02:25:07.911Z,1002.04
2016-09-12T02:25:29.643Z,1002.33
2016-09-12T02:25:51.393Z,1002.19
2016-09-12T02:26:13.124Z,1001.83
2016-09-12T02:26:34.859Z,1001.92
2016-09-12T02:26:56.590Z,1001.98
2016-09-12T02:27:18.352Z,1002.18
2016-09-12T02:27:40.075Z,1002.62
2016-09-12T02:28:01.888Z,1002.72
2016-09-12T02:28:23.562Z,1002.42
2016-09-12T02:28:45.289Z,1002.25
2016-09-12T02:29:07.145Z,1002.08
2016-09-12T02:29:28.760Z,1002.08
2016-09-12T02:29:50.500Z,1001.73
2016-09-12T02:30:12.230Z,1001.69
2016-09-12T02:30:33.947Z,1002.31
2016-09-12T02:30:55.684Z,1002.88
2016-09-12T02:31:17.540Z,1002.43
2016-09-12T02:31:39.185Z,1002.01
2016-09-12T02:32:00.942Z,1002.30
2016-09-12T02:32:22.630Z,1002.43
2016-09-12T02:32:44.381Z,1002.57
2016-09-12T02:33:06.213Z,1002.18
2016-09-12T02:33:27.905Z,1002.37
2016-09-12T02:33:49.649Z,1002.18
2016-09-12T02:34:11.379Z,1002.01
2016-09-12T02:34:33.121Z,1002.19
2016-09-12T02:34:54.846Z,1002.21
2016-09-12T02:35:16.593Z,1002.49
2016-09-12T02:35:38.309Z,1001.98
2016-09-12T02:36:00.270Z,1001.85
2016-09-12T02:36:22.017Z,1002.09
2016-09-12T02:36:43.779Z,1002.38
2016-09-12T02:37:05.512Z,1002.05
2016-09-12T02:37:27.238Z,1002.52
2016-09-12T02:37:48.977Z,1002.47
2016-09-12T02:38:10.698Z,1002.16
2016-09-12T02:38:32.436Z,1002.22
2016-09-12T02:38:54.185Z,1002.04
2016-09-12T02:39:15.918Z,1001.77
2016-09-12T02:39:37.653Z,1002.06
2016-09-12T02:39:59.380Z,1002.02
2016-09-12T02:40:21.112Z,1002.33
2016-09-12T02:40:42.841Z,1002.44
2016-09-12T02:41:04.569Z,1002.39
2016-09-12T02:41:26.335Z,1001.78
2016-09-12T02:41:48.121Z,1002.21
2016-09-12T02:42:09.938Z,1002.24
2016-09-12T02:42:31.695Z,1002.20
2016-09-12T02:42:53.412Z,1002.66
2016-09-12T02:43:15.146Z,1002.59
2016-09-12T02:43:36.882Z,1002.41
2016-09-12T02:43:58.627Z,1002.20
2016-09-12T02:44:20.351Z,1002.02
2016-09-12T02:44:44.712Z,1002.40
2016-09-12T02:45:06.439Z,1002.15
2016-09-12T02:45:28.195Z,1001.87
2016-09-12T02:45:49.928Z,1001.84
2016-09-12T02:46:11.689Z,1001.78
2016-09-12T02:46:33.412Z,1002.22
2016-09-12T02:46:55.155Z,1002.14
2016-09-12T02:47:16.871Z,1002.49
2016-09-12T02:47:38.595Z,1002.25
2016-09-12T02:48:00.380Z,1001.91
2016-09-12T02:48:22.191Z,1002.12
2016-09-12T02:48:43.824Z,1002.28
2016-09-12T02:49:05.547Z,1002.07
2016-09-12T02:49:27.405Z,1002.03
2016-09-12T02:49:49.120Z,1001.91
2016-09-12T02:50:10.840Z,1001.86
2016-09-12T02:50:32.596Z,1002.35
2016-09-12T02:50:54.338Z,1002.14
2016-09-12T02:51:16.061Z,1002.04
2016-09-12T02:51:37.806Z,1001.84
2016-09-12T02:52:02.532Z,1001.94
2016-09-12T02:52:24.227Z,1001.94
2016-09-12T02:52:45.940Z,1002.27
2016-09-12T02:53:07.686Z,1002.29
2016-09-12T02:53:29.424Z,1001.92
2016-09-12T02:53:51.195Z,1002.18
2016-09-12T02:54:13.041Z,1001.98
2016-09-12T02:54:34.810Z,1002.08
2016-09-12T02:54:56.538Z,1002.29
2016-09-12T02:55:18.300Z,1002.08
2016-09-12T02:55:44.782Z,1002.09
2016-09-12T02:56:06.709Z,1002.41
2016-09-12T02:56:28.602Z,1002.52
2016-09-12T02:56:50.329Z,1002.14
2016-09-12T02:57:12.052Z,1002.11
2016-09-12T02:57:33.782Z,1001.86
2016-09-12T02:57:55.508Z,1001.91
2016-09-12T02:58:17.254Z,1002.32
2016-09-12T02:58:39.984Z,1001.95
2016-09-12T02:59:01.726Z,1002.05
2016-09-12T02:59:23.453Z,1002.15
2016-09-12T02:59:45.200Z,1002.05
2016-09-12T03:00:06.925Z,1002.11
2016-09-12T03:00:28.655Z,1002.20
2016-09-12T03:00:50.525Z,1002.23
2016-09-12T03:01:12.475Z,1002.53
2016-09-12T03:01:34.206Z,1002.16
2016-09-12T03:01:55.972Z,1002.21
2016-09-12T03:02:17.700Z,1002.38
2016-09-12T03:02:39.421Z,1002.16
2016-09-12T03:03:01.185Z,1002.24
2016-09-12T03:03:23.071Z,1002.30
2016-09-12T03:03:44.823Z,1002.18
2016-09-12T03:04:06.557Z,1002.00
2016-09-12T03:04:28.298Z,1001.79
2016-09-12T03:04:50.154Z,1002.21
2016-09-12T03:05:11.885Z,1002.31
2016-09-12T03:05:33.635Z,1002.12
2016-09-12T03:05:55.351Z,1002.15
2016-09-12T03:06:17.149Z,1001.94
2016-09-12T03:06:38.813Z,1002.10
2016-09-12T03:07:00.555Z,1002.31
2016-09-12T03:07:22.481Z,1002.17
2016-09-12T03:07:44.246Z,1002.34
2016-09-12T03:08:05.964Z,1002.08
2016-09-12T03:08:27.706Z,1002.06
2016-09-12T03:08:49.483Z,1002.18
2016-09-12T03:09:11.230Z,1002.36
2016-09-12T03:09:32.947Z,1002.16
2016-09-12T03:09:54.714Z,1002.00
2016-09-12T03:10:16.530Z,1001.77
2016-09-12T03:10:43.085Z,1001.94
2016-09-12T03:11:04.890Z,1002.09
2016-09-12T03:11:31.373Z,1002.29
2016-09-12T03:11:53.108Z,1002.19
2016-09-12T03:12:14.848Z,1002.16
2016-09-12T03:12:36.594Z,1002.36
2016-09-12T03:12:59.329Z,1002.25
2016-09-12T03:13:21.051Z,1002.15
2016-09-12T03:13:42.780Z,1001.95
2016-09-12T03:14:04.523Z,1002.03
2016-09-12T03:14:26.366Z,1002.00
2016-09-12T03:14:48.087Z,1002.08
2016-09-12T03:15:09.818Z,1002.02
2016-09-12T03:15:31.587Z,1002.26
2016-09-12T03:15:54.373Z,1002.15
2016-09-12T03:16:16.106Z,1002.19
2016-09-12T03:16:37.876Z,1001.83
2016-09-12T03:16:59.606Z,1001.78
2016-09-12T03:17:21.339Z,1001.83
2016-09-12T03:17:43.089Z,1001.82
2016-09-12T03:18:04.831Z,1001.87
2016-09-12T03:18:26.960Z,1001.77
2016-09-12T03:18:48.708Z,1002.07
2016-09-12T03:19:10.445Z,1002.29
2016-09-12T03:19:32.165Z,1002.20
2016-09-12T03:19:53.898Z,1002.36
2016-09-12T03:20:15.632Z,1002.56
2016-09-12T03:20:37.372Z,1002.55
2016-09-12T03:20:59.112Z,1002.22
2016-09-12T03:21:25.605Z,1002.19
2016-09-12T03:21:47.326Z,1002.19
2016-09-12T03:22:09.067Z,1002.16
2016-09-12T03:22:30.808Z,1002.02
2016-09-12T03:22:52.538Z,1001.99
2016-09-12T03:23:14.273Z,1002.01
2016-09-12T03:23:35.997Z,1002.06
2016-09-12T03:23:57.774Z,1002.26
2016-09-12T03:24:19.505Z,1001.99
2016-09-12T03:24:41.257Z,1002.05
2016-09-12T03:25:03.070Z,1001.82
2016-09-12T03:25:24.788Z,1002.12
2016-09-12T03:25:46.525Z,1002.20
2016-09-12T03:26:08.339Z,1002.12
2016-09-12T03:26:30.295Z,1001.94
2016-09-12T03:26:52.035Z,1001.72
2016-09-12T03:27:13.869Z,1002.21
2016-09-12T03:27:35.546Z,1001.90
2016-09-12T03:27:57.384Z,1002.12
2016-09-12T03:28:19.118Z,1002.21
2016-09-12T03:28:40.856Z,1002.21
2016-09-12T03:29:02.595Z,1002.29
2016-09-12T03:29:24.315Z,1002.11
2016-09-12T03:29:46.054Z,1001.86
2016-09-12T03:30:07.815Z,1001.78
2016-09-12T03:30:29.518Z,1001.64
2016-09-12T03:30:51.258Z,1001.99
2016-09-12T03:31:12.989Z,1002.34
2016-09-12T03:31:34.720Z,1002.31
2016-09-12T03:31:56.442Z,1002.44
2016-09-12T03:32:18.185Z,1002.23
2016-09-12T03:32:39.914Z,1002.36
2016-09-12T03:33:01.644Z,1002.40
2016-09-12T03:33:23.378Z,1002.22
2016-09-12T03:33:45.112Z,1002.16
2016-09-12T03:34:07.225Z,1001.92
2016-09-12T03:34:28.889Z,1001.71
2016-09-12T03:34:50.609Z,1001.70
2016-09-12T03:35:12.344Z,1002.09
2016-09-12T03:35:34.074Z,1002.43
2016-09-12T03:35:55.802Z,1002.23
2016-09-12T03:36:17.533Z,1002.06
2016-09-12T03:36:39.273Z,1002.15
2016-09-12T03:37:01.108Z,1002.42
2016-09-12T03:37:22.955Z,1002.50
2016-09-12T03:37:44.741Z,1002.18
2016-09-12T03:38:06.437Z,1002.08
2016-09-12T03:38:28.171Z,1001.93
2016-09-12T03:38:49.930Z,1002.12
2016-09-12T03:39:11.713Z,1001.80
2016-09-12T03:39:33.432Z,1001.99
2016-09-12T03:39:55.172Z,1002.08
2016-09-12T03:40:16.903Z,1002.31
2016-09-12T03:40:38.668Z,1002.01
2016-09-12T03:41:00.372Z,1002.40
2016-09-12T03:41:22.097Z,1002.52
2016-09-12T03:41:43.830Z,1002.32
2016-09-12T03:42:05.655Z,1002.25
2016-09-12T03:42:27.393Z,1002.24
2016-09-12T03:42:49.123Z,1002.20
2016-09-12T03:43:10.842Z,1002.05
2016-09-12T03:43:32.570Z,1001.89
2016-09-12T03:43:55.297Z,1001.84
2016-09-12T03:44:17.035Z,1002.16
2016-09-12T03:44:38.819Z,1002.37
2016-09-12T03:45:00.538Z,1002.40
2016-09-12T03:45:22.267Z,1002.22
2016-09-12T03:45:44.047Z,1002.19
2016-09-12T03:46:05.792Z,1001.96
2016-09-12T03:46:27.514Z,1001.93
2016-09-12T03:46:49.297Z,1002.07
2016-09-12T03:47:11.049Z,1002.41
2016-09-12T03:47:32.750Z,1002.36
2016-09-12T03:47:54.497Z,1002.23
2016-09-12T03:48:17.235Z,1002.10
2016-09-12T03:48:38.975Z,1002.09
2016-09-12T03:49:00.705Z,1002.09
2016-09-12T03:49:22.431Z,1002.16
2016-09-12T03:49:44.164Z,1002.16
2016-09-12T03:50:05.895Z,1001.81
2016-09-12T03:50:27.669Z,1001.70
2016-09-12T03:50:49.417Z,1002.03
2016-09-12T03:51:12.126Z,1002.30
2016-09-12T03:51:33.901Z,1002.61
2016-09-12T03:51:55.809Z,1001.97
2016-09-12T03:52:17.546Z,1002.05
2016-09-12T03:52:39.304Z,1002.40
2016-09-12T03:53:01.014Z,1002.37
2016-09-12T03:53:22.749Z,1002.24
2016-09-12T03:53:44.502Z,1002.20
2016-09-12T03:54:06.241Z,1002.20
2016-09-12T03:54:27.977Z,1002.01
2016-09-12T03:54:49.708Z,1002.08
2016-09-12T03:55:11.457Z,1001.91
2016-09-12T03:55:33.215Z,1001.89
2016-09-12T03:55:54.957Z,1001.81
2016-09-12T03:56:16.705Z,1002.01
2016-09-12T03:56:38.456Z,1002.18
2016-09-12T03:57:00.173Z,1002.01
2016-09-12T03:57:21.901Z,1001.77
2016-09-12T03:57:43.767Z,1001.86
2016-09-12T03:58:05.507Z,1001.80
2016-09-12T03:58:27.230Z,1001.92
2016-09-12T03:58:48.950Z,1002.19
2016-09-12T03:59:10.759Z,1002.38
2016-09-12T03:59:32.408Z,1001.93
2016-09-12T03:59:54.145Z,1002.17
2016-09-12T04:00:15.879Z,1002.17
2016-09-12T04:00:37.587Z,1002.19
2016-09-12T04:00:59.326Z,1001.93
2016-09-12T04:01:21.106Z,1002.12
2016-09-12T04:01:42.901Z,1002.15
2016-09-12T04:02:04.642Z,1001.99
2016-09-12T04:02:26.370Z,1001.90
2016-09-12T04:02:48.183Z,1001.84
2016-09-12T04:03:09.954Z,1001.95
2016-09-12T04:03:31.686Z,1002.76
2016-09-12T04:03:53.424Z,1002.03
2016-09-12T04:04:15.279Z,1002.41
2016-09-12T04:04:36.881Z,1002.45
2016-09-12T04:04:58.653Z,1002.08
2016-09-12T04:05:20.388Z,1001.74
2016-09-12T04:05:42.120Z,1001.88
2016-09-12T04:06:03.901Z,1002.32
2016-09-12T04:06:25.850Z,1002.02
2016-09-12T04:06:47.580Z,1001.98
2016-09-12T04:07:09.325Z,1002.30
2016-09-12T04:07:31.061Z,1002.24
2016-09-12T04:07:52.804Z,1001.74
2016-09-12T04:08:14.531Z,1001.73
2016-09-12T04:08:36.266Z,1001.97
2016-09-12T04:08:58.012Z,1001.99
2016-09-12T04:09:19.732Z,1002.01
2016-09-12T04:09:41.460Z,1002.12
2016-09-12T04:10:03.207Z,1002.00
2016-09-12T04:10:25.169Z,1002.14
2016-09-12T04:10:46.884Z,1002.27
2016-09-12T04:11:08.644Z,1002.17
2016-09-12T04:11:30.501Z,1002.27
2016-09-12T04:11:52.225Z,1002.04
2016-09-12T04:12:13.974Z,1001.99
2016-09-12T04:12:35.766Z,1001.93
2016-09-12T04:12:57.601Z,1001.92
2016-09-12T04:13:19.346Z,1001.99
2016-09-12T04:13:41.095Z,1001.80
2016-09-12T04:14:02.817Z,1002.00
2016-09-12T04:14:24.542Z,1001.89
2016-09-12T04:14:46.279Z,1002.17
2016-09-12T04:15:08.079Z,1001.89
2016-09-12T04:15:29.819Z,1002.12
2016-09-12T04:15:51.562Z,1002.06
2016-09-12T04:16:13.297Z,1001.78
2016-09-12T04:16:35.075Z,1001.95
2016-09-12T04:16:56.846Z,1002.05
2016-09-12T04:17:18.621Z,1002.20
2016-09-12T04:17:40.402Z,1001.94
2016-09-12T04:18:02.710Z,1002.01
2016-09-12T04:18:24.368Z,1001.94
2016-09-12T04:18:46.094Z,1001.92
2016-09-12T04:19:07.844Z,1002.08
2016-09-12T04:19:29.576Z,1002.18
2016-09-12T04:19:51.308Z,1002.03
2016-09-12T04:20:13.025Z,1002.01
2016-09-12T04:20:34.779Z,1002.29
2016-09-12T04:20:56.494Z,1002.03
2016-09-12T04:21:18.219Z,1001.90
2016-09-12T04:21:39.959Z,1002.18
2016-09-12T04:22:01.870Z,1002.10
2016-09-12T04:22:23.610Z,1002.10
2016-09-12T04:22:45.835Z,1002.00
2016-09-12T04:23:07.512Z,1002.14
2016-09-12T04:23:29.256Z,1001.86
2016-09-12T04:23:50.977Z,1001.92
2016-09-12T04:24:12.723Z,1002.08
2016-09-12T04:24:34.443Z,1002.02
2016-09-12T04:24:56.155Z,1002.30
2016-09-12T04:25:17.886Z,1002.29
2016-09-12T04:25:39.610Z,1002.16
2016-09-12T04:26:01.333Z,1001.81
2016-09-12T04:26:23.172Z,1001.92